Estación Meteorológica Peña el Pijo (Robertgarden) [ 12/14/19 08:39:36 CET ]

Fecha Hora Presion(HPa) Temp (°C) Humedad % Rocio (°C) Viento ( m/s) Direccion Lluvia 1Hora(mm) Lluvia 24H(mm) LLuvia Total(mm)
2019-Sep-26 01:01:37 1011.900 11.5 79 8.0         490.25
2019-Sep-26 02:01:45 1011.700 11.3 80 8.0         490.25
2019-Sep-26 03:02:04 1011.600 10.0 81 6.9         490.25
2019-Sep-26 04:03:34 1011.400 9.5 81 6.4         490.25
2019-Sep-26 05:02:16 1011.600 8.9 82 6.0         490.25
2019-Sep-26 06:02:06 1011.800 8.9 84 6.3         490.25
2019-Sep-26 07:01:45 1011.900 8.5 85 6.1         490.25
2019-Sep-26 08:01:53 1012.000 8.5 86 6.3         490.25
2019-Sep-26 09:01:36 1012.500 9.0 87 7.0         490.25
2019-Sep-26 10:01:45 1012.800 15.8 84 13.1         490.25
2019-Sep-26 11:01:53 1012.900 19.6 66 13.3         490.25
2019-Sep-26 12:02:01 1012.600 24.1 51 13.4         490.25
2019-Sep-26 13:01:53 1012.200 28.4 39 13.1         490.25
2019-Sep-26 14:01:31 1011.900 29.6 37 13.3         490.25
2019-Sep-26 15:01:30 1011.200 29.8 37 13.5         490.25
2019-Sep-26 16:01:41 1011.100 30.4 35 13.1         490.25
2019-Sep-26 17:01:50 1011.000 30.4 35 13.1         490.25
2019-Sep-26 18:01:42 1010.900 28.6 40 13.7         490.25
2019-Sep-26 19:01:49 1011.300 25.8 47 13.6         490.25
2019-Sep-26 20:01:46 1011.600 21.8 58 13.2         490.25
2019-Sep-26 21:01:48 1012.400 18.3 68 12.3         490.25
2019-Sep-26 22:01:47 1013.000 15.9 75 11.5         490.25
2019-Sep-26 23:01:42 1013.500 14.6 77 10.6         490.25

Temperatura Máxima:30°    Temperatura Mínima:
Presión Máxima:1013.500 Hpa    Presión Mínima:1010.900 Hpa


Volver